メインページ
METAR-TAF:

METAR-TAF

空港 :

西安, 中華人民共和国

西安咸陽国際空港

緯度: 34-26N, 経度: 108-45E, 海抜: 479m

現時点の気象観測

当レポートは21分前の06:00(UTC)に作成
変向風 2kt
気温 2°C
湿度 55%
気圧 1027 hPa
視程: 4000m
高度7000ftの曇り
煙霧

METAR: ZLXY 140600Z VRB01MPS 4000 HZ OVC070 02/M06 Q1027 NOSIG

時間: 14:21 (06:21 UTC)

予報

当レポートは2時間58分前の03:23(UTC)に作成
予報は14日の 06時(UTC)から 15日の 06時(UTC)まで有効
西/南西の風 6kt
視程: 3000m
高度6000ftの雲は散在している
煙霧

TAF: ZLXY 140323Z 1406/1506 24003MPS 3000 HZ SCT060 TX08/1406Z TNM03/23Z

4,000以上の空港の気象観測と天気予報(METAR報とTAF報)

利用可能な観測所は地図上に黄色い丸と赤い丸で示す。

丸の上にカーソルを重ねると観測所名を参照できる。

次にクリックすると気象観測と天気予報を参照できる。

マップの切り替え:黒色「×」印の緑ボタンをクリックして拡大、「-」印の緑ボタンをクリックして縮小、緑色の三角印をクリックして隣りの地図に切り替え


METAR-TAF: